Latest Weather Observations for Frankston (Ballam Park)

IDV60801

Issued at 3:02 pm EST Tuesday 4 August 2020 (issued every 10 minutes, with the page automatically refreshed every 10 minutes)

About weather observations | Map of weather stations | Latest weather observations for VIC | Other Formats
Station Details ID: 086388 Name: FRANKSTON (BALLAM PARK) Lat: -38.15 Lon: 145.16 Height: 58.47 m
Data from the previous 72 hours. | See also: Recent months for locations in Victoria
Date/Time
EST
Temp
°C
App
Temp
°C
Dew
Point
°C
Rel
Hum
%
Delta-T
°C
Wind Press
QNH
hPa
Press
MSL
hPa
Rain since
9am
mm
Dir  Spd
km/h
Gust
km/h
Spd
kts
Gust
kts
04/03:00pm 8.4 3.8 1.8 63 2.7 WSW 15 33 8 18 1011.1 1011.1 5.4
04/02:30pm 8.0 4.3 4.4 78 1.6 W 13 26 7 14 1011.0 1011.0 5.4
04/02:00pm 8.4 3.7 3.3 70 2.2 WNW 17 35 9 19 1010.9 1010.9 5.4
04/01:30pm 7.7 3.6 4.1 78 1.6 W 15 26 8 14 1011.1 1011.1 5.4
04/01:00pm 7.0 3.7 4.8 86 1.0 W 11 19 6 10 1011.2 1011.2 5.4
04/12:30pm 6.4 2.7 4.2 86 0.9 WNW 13 24 7 13 1011.6 1011.6 5.2
04/12:00pm 5.0 1.8 3.3 89 0.7 WNW 9 15 5 8 1012.0 1012.0 5.2
04/11:30am 3.8 0.1 2.6 92 0.5 WNW 11 24 6 13 1012.0 1012.0 4.8
04/11:00am 3.1 -0.3 1.6 90 0.6 WSW 9 22 5 12 1012.0 1012.0 3.4
04/10:30am 5.0 0.3 2.9 86 0.9 W 17 35 9 19 1011.8 1011.8 0.4
04/10:00am 5.6 0.3 2.8 82 1.2 WNW 20 39 11 21 1011.3 1011.3 0.0
04/09:30am 5.3 -0.1 2.7 83 1.1 WNW 20 35 11 19 1011.4 1011.4 0.0
04/09:00am 5.2 -0.3 2.0 80 1.3 WNW 20 33 11 18 1011.5 1011.5 6.4
04/08:30am 5.9 0.4 1.8 75 1.7 WNW 20 37 11 20 1011.3 1011.3 6.4
04/08:00am 5.4 0.1 2.1 79 1.3 NW 19 33 10 18 1011.2 1011.2 6.4
04/07:30am 5.3 0.5 2.5 82 1.1 NW 17 28 9 15 1011.2 1011.2 6.4
04/07:00am 5.1 0.6 2.3 82 1.1 WNW 15 30 8 16 1011.1 1011.1 6.4
04/06:30am 5.4 1.0 2.9 84 1.0 WNW 15 30 8 16 1011.4 1011.4 6.4
04/06:00am 5.7 1.3 2.7 81 1.2 WNW 15 26 8 14 1011.2 1011.2 6.4
04/05:30am 5.8 1.3 2.3 78 1.4 WNW 15 26 8 14 1011.2 1011.2 6.4
04/05:00am 5.5 1.9 3.2 85 1.0 WNW 11 20 6 11 1011.3 1011.3 6.4
04/04:30am 4.8 1.5 2.7 86 0.9 WSW 9 26 5 14 1011.5 1011.5 6.4
04/04:00am 4.8 1.3 3.6 92 0.5 W 11 24 6 13 1011.7 1011.7 5.0
04/03:30am 5.3 1.9 4.0 91 0.6 W 11 24 6 13 1011.6 1011.6 3.2
04/03:00am 6.3 2.9 4.1 86 0.9 W 11 24 6 13 1011.5 1011.5 1.2
04/02:30am 7.0 2.7 3.1 76 1.6 WNW 15 32 8 17 1011.4 1011.4 1.2
04/02:00am 7.8 3.1 3.3 73 1.9 WNW 17 32 9 17 1011.5 1011.5 1.2
04/01:30am 8.2 3.5 3.1 70 2.2 WNW 17 28 9 15 1011.4 1011.4 1.2
04/01:00am 8.1 3.4 3.0 70 2.2 WNW 17 28 9 15 1011.7 1011.7 1.2
04/12:30am 8.3 4.1 3.6 72 2.0 WNW 15 28 8 15 1011.5 1011.5 1.2
04/12:00am 8.7 3.6 3.3 69 2.3 WNW 19 32 10 17 1011.6 1011.6 1.2
 
Date/Time
EST
Temp
°C
App
Temp
°C
Dew
Point
°C
Rel
Hum
%
Delta-T
°C
Wind Press
QNH
hPa
Press
MSL
hPa
Rain since
9am
mm
Dir  Spd
km/h
Gust
km/h
Spd
kts
Gust
kts
03/11:30pm 8.8 4.6 3.8 71 2.2 WNW 15 28 8 15 1011.8 1011.8 1.2
03/11:00pm 8.9 4.9 4.7 75 1.9 NW 15 26 8 14 1012.0 1012.0 1.2
03/10:30pm 8.4 6.1 5.5 82 1.3 NW 7 17 4 9 1012.0 1012.0 1.2
03/10:00pm 8.5 5.4 5.6 82 1.3 NW 11 19 6 10 1012.2 1012.2 1.2
03/09:30pm 8.3 5.7 5.9 85 1.1 NW 9 19 5 10 1012.5 1012.5 1.2
03/09:00pm 8.3 6.0 5.9 85 1.1 WNW 7 15 4 8 1012.8 1012.8 0.8
03/08:30pm 8.6 6.3 5.7 82 1.3 W 7 13 4 7 1012.8 1012.8 0.2
03/08:00pm 8.6 6.4 6.1 84 1.1 W 7 17 4 9 1012.9 1012.9 0.2
03/07:30pm 9.2 7.2 7.0 86 1.0 W 7 19 4 10 1013.0 1013.0 0.2
03/07:00pm 9.3 6.7 7.6 89 0.8 W 11 22 6 12 1013.0 1013.0 0.2
03/06:30pm 9.8 7.8 7.2 84 1.2 WSW 7 15 4 8 1012.7 1012.7 0.0
03/06:00pm 10.1 7.9 7.7 85 1.2 WSW 9 20 5 11 1012.6 1012.6 0.0
03/05:30pm 11.5 8.6 6.6 72 2.3 W 11 20 6 11 1012.4 1012.4 0.0
03/05:00pm 11.9 9.0 6.6 70 2.5 WNW 11 19 6 10 1012.4 1012.4 0.0
03/04:30pm 12.0 8.7 6.5 69 2.6 WNW 13 22 7 12 1012.6 1012.6 0.0
03/04:00pm 12.2 9.0 6.7 69 2.6 WNW 13 22 7 12 1012.6 1012.6 0.0
03/03:30pm 12.0 9.1 6.7 70 2.5 WNW 11 22 6 12 1012.7 1012.7 0.0
03/03:00pm 12.2 9.8 6.9 70 2.5 WNW 9 20 5 11 1013.1 1013.1 0.0
03/02:30pm 12.5 9.7 6.8 68 2.7 WNW 11 19 6 10 1013.2 1013.2 0.0
03/02:00pm 12.4 9.9 6.7 68 2.7 NW 9 17 5 9 1013.4 1013.4 0.0
03/01:30pm 12.2 8.7 5.6 64 3.1 NW 13 19 7 10 1013.8 1013.8 0.0
03/01:00pm 12.4 9.0 5.8 64 3.1 WNW 13 20 7 11 1014.4 1014.4 0.0
03/12:30pm 12.8 9.6 6.8 67 2.9 NW 13 19 7 10 1014.9 1014.9 0.0
03/12:00pm 12.4 9.2 6.7 68 2.7 WNW 13 20 7 11 1015.5 1015.5 0.0
03/11:30am 12.4 8.1 6.9 69 2.6 NW 19 28 10 15 1016.0 1016.0 0.0
03/11:00am 12.3 8.8 7.2 71 2.5 NW 15 22 8 12 1016.4 1016.5 0.0
03/10:30am 11.6 8.5 7.1 74 2.2 NW 13 22 7 12 1016.6 1016.7 0.0
03/10:00am 11.4 8.6 7.1 75 2.1 NW 11 19 6 10 1016.7 1016.8 0.0
03/09:30am 10.7 8.4 7.4 80 1.6 NW 9 17 5 9 1017.0 1017.1 0.0
03/09:00am 10.6 8.1 8.0 84 1.3 NW 11 19 6 10 1017.2 1017.3 0.0
03/08:30am 9.8 7.9 7.4 85 1.1 NW 7 13 4 7 1017.2 1017.3 0.0
03/08:00am 9.6 7.3 7.5 87 1.0 NNW 9 17 5 9 1017.1 1017.2 0.0
03/07:30am 9.5 7.2 7.6 88 0.9 NW 9 17 5 9 1017.3 1017.4 0.0
03/07:00am 9.2 7.5 7.6 90 0.8 WNW 6 11 3 6 1017.2 1017.3 0.0
03/06:30am 8.9 7.2 7.7 92 0.6 NW 6 11 3 6 1017.0 1017.1 0.0
03/06:00am 8.4 6.7 7.5 94 0.4 NW 6 9 3 5 1016.8 1016.9 0.0
03/05:30am 8.3 6.6 7.5 95 0.4 NW 6 9 3 5 1017.0 1017.1 0.0
03/05:00am 8.1 7.5 7.5 96 0.3 CALM 0 0 0 0 1016.8 1016.9 0.0
03/04:30am 8.8 7.0 8.0 95 0.4 WNW 7 9 4 5 1016.9 1017.0 0.0
03/04:00am 8.9 7.1 8.1 95 0.4 WNW 7 11 4 6 1016.8 1016.9 0.0
03/03:30am 9.5 7.6 7.4 87 1.0 NW 7 11 4 6 1016.8 1016.9 0.0
03/03:00am 11.0 7.5 7.1 77 1.9 NW 15 24 8 13 1017.2 1017.3 0.0
03/02:30am 9.6 7.4 7.7 88 0.9 NW 9 15 5 8 1017.4 1017.5 0.0
03/02:00am 7.8 5.9 6.9 94 0.4 NW 6 7 3 4 1017.4 1017.5 0.0
03/01:30am 8.4 7.8 7.6 95 0.4 CALM 0 0 0 0 1017.7 1017.8 0.0
03/01:00am 8.0 6.9 7.1 94 0.4 WNW 2 4 1 2 1018.1 1018.2 0.0
03/12:30am 8.2 7.5 6.8 91 0.6 CALM 0 0 0 0 1018.5 1018.6 0.0
03/12:00am 8.5 7.9 7.3 92 0.6 CALM 0 0 0 0 1018.8 1018.9 0.0
 
Date/Time
EST
Temp
°C
App
Temp
°C
Dew
Point
°C
Rel
Hum
%
Delta-T
°C
Wind Press
QNH
hPa
Press
MSL
hPa
Rain since
9am
mm
Dir  Spd
km/h
Gust
km/h
Spd
kts
Gust
kts
02/11:30pm 8.4 7.7 6.9 90 0.7 CALM 0 0 0 0 1019.1 1019.2 0.0
02/11:00pm 8.4 7.6 6.4 87 0.9 CALM 0 0 0 0 1019.6 1019.7 0.0
02/10:30pm 9.1 8.0 6.7 85 1.1 SW 2 4 1 2 1019.9 1020.0 0.0
02/10:00pm 8.4 7.6 6.5 88 0.9 CALM 0 2 0 1 1020.4 1020.5 0.0
02/09:30pm 8.6 7.8 6.7 88 0.9 CALM 0 0 0 0 1020.6 1020.7 0.0
02/09:00pm 8.4 7.6 6.4 87 0.9 CALM 0 0 0 0 1020.7 1020.8 0.0
02/08:30pm 9.0 8.3 7.0 87 0.9 CALM 0 0 0 0 1020.9 1021.0 0.0
02/08:00pm 9.4 8.8 7.2 86 1.0 CALM 0 0 0 0 1021.0 1021.1 0.0
02/07:30pm 10.3 9.3 7.4 82 1.4 SE 2 7 1 4 1020.8 1020.9 0.0
02/07:00pm 10.5 9.6 7.6 82 1.4 ESE 2 4 1 2 1020.8 1020.9 0.0
02/06:30pm 11.7 10.3 7.4 75 2.1 SE 4 6 2 3 1020.7 1020.8 0.0
02/06:00pm 12.7 11.3 7.4 70 2.6 SSE 4 7 2 4 1020.6 1020.7 0.0
02/05:30pm 14.0 12.6 7.3 64 3.3 SSE 4 6 2 3 1020.4 1020.5 0.0
02/05:00pm 15.5 14.8 7.0 57 4.2 CALM 0 2 0 1 1020.2 1020.3 0.0
02/04:30pm 16.4 14.8 6.5 52 4.9 NNW 4 7 2 4 1020.1 1020.2 0.0
02/04:00pm 17.0 15.5 6.8 51 5.0 NNW 4 9 2 5 1020.1 1020.2 0.0
02/03:30pm 17.1 15.9 6.6 50 5.2 NW 2 6 1 3 1020.3 1020.4 0.0
02/03:00pm 16.7 15.3 7.4 54 4.6 WNW 4 9 2 5 1020.5 1020.6 0.0
02/02:30pm 16.2 14.1 6.6 53 4.7 NW 7 11 4 6 1020.6 1020.7 0.0
02/02:00pm 16.5 14.6 7.4 55 4.5 NW 7 15 4 8 1021.0 1021.1 0.0
02/01:30pm 15.9 13.2 7.4 57 4.2 NW 11 17 6 9 1021.4 1021.5 0.0
02/01:00pm 15.9 13.3 7.9 59 4.0 NNW 11 17 6 9 1021.7 1021.8 0.0
02/12:30pm 15.2 12.2 7.5 60 3.8 NNW 13 22 7 12 1022.2 1022.3 0.0
02/12:00pm 15.3 12.5 7.1 58 4.0 NNW 11 20 6 11 1022.5 1022.6 0.0
02/11:30am 14.8 11.7 7.1 60 3.8 NNW 13 24 7 13 1022.9 1023.0 0.0
02/11:00am 13.6 9.1 6.2 61 3.5 NNW 19 28 10 15 1023.1 1023.2 0.0
02/10:30am 13.2 9.1 6.1 62 3.4 NNW 17 28 9 15 1023.3 1023.4 0.0
02/10:00am 12.6 8.8 5.8 63 3.2 NNW 15 28 8 15 1023.4 1023.5 0.0
02/09:30am 12.1 9.0 5.5 64 3.1 NNW 11 20 6 11 1023.4 1023.5 0.0
02/09:00am 11.0 7.8 5.1 67 2.7 NNW 11 17 6 9 1023.4 1023.5 0.0
02/08:30am 10.0 7.2 5.0 71 2.3 N 9 17 5 9 1023.1 1023.2 0.0
02/08:00am 8.3 6.3 4.5 77 1.7 NNW 4 9 2 5 1023.1 1023.2 0.0
02/07:30am 7.6 5.5 4.0 78 1.6 NNW 4 9 2 5 1022.8 1022.9 0.0
02/07:00am 7.8 5.4 4.2 78 1.6 NW 6 9 3 5 1022.6 1022.7 0.0
02/06:30am 8.2 5.9 4.8 79 1.5 NNW 6 9 3 5 1022.5 1022.6 0.0
02/06:00am 8.5 6.3 5.1 79 1.5 NW 6 9 3 5 1022.2 1022.3 0.0
02/05:30am 7.9 5.6 4.8 81 1.4 NW 6 9 3 5 1021.9 1022.0 0.0
02/05:00am 8.1 5.8 5.0 81 1.4 NW 6 9 3 5 1021.8 1021.9 0.0
02/04:30am 8.0 5.7 4.9 81 1.4 NW 6 7 3 4 1021.7 1021.8 0.0
02/04:00am 8.9 6.6 4.9 76 1.8 NW 6 9 3 5 1021.6 1021.7 0.0
02/03:30am 9.1 7.2 4.9 75 1.9 W 4 7 2 4 1021.7 1021.8 0.0
02/03:00am 9.7 7.2 4.9 72 2.2 NNW 7 15 4 8 1021.5 1021.6 0.0
02/02:30am 9.9 7.5 5.1 72 2.2 NNW 7 13 4 7 1021.5 1021.6 0.0
02/02:00am 9.9 7.7 5.3 73 2.1 NNW 6 13 3 7 1021.5 1021.6 0.0
02/01:30am 10.2 7.9 5.6 73 2.1 NNW 7 11 4 6 1021.5 1021.6 0.0
02/01:00am 10.2 8.0 5.4 72 2.2 NNW 6 11 3 6 1021.6 1021.7 0.0
02/12:30am 10.5 8.3 5.5 71 2.3 NNW 6 11 3 6 1021.9 1022.0 0.0
02/12:00am 10.8 8.1 5.6 70 2.4 NNW 9 19 5 10 1021.9 1022.0 0.0
 
Date/Time
EST
Temp
°C
App
Temp
°C
Dew
Point
°C
Rel
Hum
%
Delta-T
°C
Wind Press
QNH
hPa
Press
MSL
hPa
Rain since
9am
mm
Dir  Spd
km/h
Gust
km/h
Spd
kts
Gust
kts
01/11:30pm 10.9 8.3 5.9 71 2.3 NNW 9 17 5 9 1021.9 1022.0 0.0
01/11:00pm 10.3 8.0 5.9 74 2.0 NNW 7 13 4 7 1022.0 1022.1 0.0
01/10:30pm 10.7 8.5 6.1 73 2.1 NNW 7 13 4 7 1022.0 1022.1 0.0
01/10:00pm 11.2 8.2 6.1 71 2.4 NNW 11 20 6 11 1021.9 1022.0 0.0
01/09:30pm 11.3 8.3 6.2 71 2.4 NNW 11 20 6 11 1021.9 1022.0 0.0
01/09:00pm 11.2 8.7 6.5 73 2.2 NNW 9 13 5 7 1022.1 1022.2 0.0
01/08:30pm 11.4 9.3 6.5 72 2.3 N 7 17 4 9 1022.2 1022.3 0.0
01/08:00pm 11.8 9.2 6.3 69 2.6 N 9 17 5 9 1022.1 1022.2 0.0
01/07:30pm 12.4 9.9 6.5 67 2.8 N 9 17 5 9 1021.9 1022.0 0.0
01/07:00pm 12.5 10.0 6.5 67 2.9 N 9 19 5 10 1021.8 1021.9 0.0
01/06:30pm 12.8 10.2 6.2 64 3.1 N 9 15 5 8 1021.8 1021.9 0.0
01/06:00pm 13.2 10.3 6.3 63 3.3 N 11 19 6 10 1021.5 1021.6 0.0
01/05:30pm 13.6 10.6 6.2 61 3.5 N 11 19 6 10 1021.4 1021.5 0.0
01/05:00pm 14.3 11.0 6.2 58 3.9 N 13 24 7 13 1021.0 1021.1 0.0
01/04:30pm 14.9 11.9 6.2 56 4.2 N 11 20 6 11 1021.0 1021.1 0.0
01/04:00pm 15.4 12.5 6.4 55 4.4 N 11 20 6 11 1020.9 1021.0 0.0
01/03:30pm 15.5 11.4 6.0 53 4.6 N 17 33 9 18 1020.9 1021.0 0.0

Other formats

Comma delimited format used in spreadsheet applications
http://www.bom.gov.au/fwo/IDV60801/IDV60801.94876.axf

JavaScript Object Notation format (JSON) in row-major order
http://www.bom.gov.au/fwo/IDV60801/IDV60801.94876.json

Data quality

Most of these data are generated automatically and are frequently updated. Quality checks on data are not normally performed. It is possible for incorrect values to appear. Refer to information at About Latest Weather Observations and please check the disclaimer before using these data.